sensor_id;sensor_type;location;lat;lon;timestamp;P1;durP1;ratioP1;P2;durP2;ratioP2
54845;SDS011;53889;50.084;8.646;2023-04-25T00:01:17;10.30;;;6.93;;
54845;SDS011;53889;50.084;8.646;2023-04-25T00:03:44;9.70;;;6.10;;
54845;SDS011;53889;50.084;8.646;2023-04-25T00:06:13;9.85;;;6.25;;
54845;SDS011;53889;50.084;8.646;2023-04-25T00:08:39;9.90;;;6.35;;
54845;SDS011;53889;50.084;8.646;2023-04-25T00:11:06;9.30;;;6.53;;
54845;SDS011;53889;50.084;8.646;2023-04-25T00:13:33;10.35;;;7.00;;
54845;SDS011;53889;50.084;8.646;2023-04-25T00:15:59;9.82;;;6.78;;
54845;SDS011;53889;50.084;8.646;2023-04-25T00:18:27;9.55;;;6.05;;
54845;SDS011;53889;50.084;8.646;2023-04-25T00:20:54;10.25;;;7.15;;
54845;SDS011;53889;50.084;8.646;2023-04-25T00:23:23;9.32;;;6.63;;
54845;SDS011;53889;50.084;8.646;2023-04-25T00:25:49;10.82;;;6.75;;
54845;SDS011;53889;50.084;8.646;2023-04-25T00:28:16;11.40;;;6.45;;
54845;SDS011;53889;50.084;8.646;2023-04-25T00:30:43;11.20;;;6.68;;
54845;SDS011;53889;50.084;8.646;2023-04-25T00:33:10;8.23;;;6.07;;
54845;SDS011;53889;50.084;8.646;2023-04-25T00:35:37;7.97;;;5.35;;
54845;SDS011;53889;50.084;8.646;2023-04-25T00:38:04;7.30;;;5.30;;
54845;SDS011;53889;50.084;8.646;2023-04-25T00:40:32;7.35;;;4.97;;
54845;SDS011;53889;50.084;8.646;2023-04-25T00:42:59;7.38;;;5.40;;
54845;SDS011;53889;50.084;8.646;2023-04-25T00:45:27;8.05;;;5.55;;
54845;SDS011;53889;50.084;8.646;2023-04-25T00:47:55;8.63;;;5.68;;
54845;SDS011;53889;50.084;8.646;2023-04-25T00:50:22;9.18;;;5.82;;
54845;SDS011;53889;50.084;8.646;2023-04-25T00:52:49;8.73;;;5.88;;
54845;SDS011;53889;50.084;8.646;2023-04-25T00:55:16;8.05;;;5.53;;
54845;SDS011;53889;50.084;8.646;2023-04-25T00:57:45;8.63;;;5.93;;
54845;SDS011;53889;50.084;8.646;2023-04-25T01:00:13;8.63;;;5.55;;
54845;SDS011;53889;50.084;8.646;2023-04-25T01:02:40;8.13;;;5.43;;
54845;SDS011;53889;50.084;8.646;2023-04-25T01:05:08;8.88;;;5.97;;
54845;SDS011;53889;50.084;8.646;2023-04-25T01:07:35;8.13;;;5.82;;
54845;SDS011;53889;50.084;8.646;2023-04-25T01:10:02;8.25;;;6.03;;
54845;SDS011;53889;50.084;8.646;2023-04-25T01:12:29;9.00;;;5.90;;
54845;SDS011;53889;50.084;8.646;2023-04-25T01:14:58;8.95;;;6.22;;
54845;SDS011;53889;50.084;8.646;2023-04-25T01:17:25;8.90;;;5.60;;
54845;SDS011;53889;50.084;8.646;2023-04-25T01:19:52;10.88;;;6.13;;
54845;SDS011;53889;50.084;8.646;2023-04-25T01:22:20;9.95;;;6.80;;
54845;SDS011;53889;50.084;8.646;2023-04-25T01:24:47;8.43;;;5.90;;
54845;SDS011;53889;50.084;8.646;2023-04-25T01:27:14;10.73;;;6.18;;
54845;SDS011;53889;50.084;8.646;2023-04-25T01:29:41;9.23;;;6.10;;
54845;SDS011;53889;50.084;8.646;2023-04-25T01:32:08;9.70;;;6.38;;
54845;SDS011;53889;50.084;8.646;2023-04-25T01:34:36;9.88;;;6.22;;
54845;SDS011;53889;50.084;8.646;2023-04-25T01:37:02;9.63;;;6.20;;
54845;SDS011;53889;50.084;8.646;2023-04-25T01:39:30;11.30;;;6.50;;
54845;SDS011;53889;50.084;8.646;2023-04-25T01:41:58;8.80;;;5.88;;
54845;SDS011;53889;50.084;8.646;2023-04-25T01:44:26;9.98;;;5.95;;
54845;SDS011;53889;50.084;8.646;2023-04-25T01:46:53;9.25;;;6.10;;
54845;SDS011;53889;50.084;8.646;2023-04-25T01:49:20;7.80;;;5.60;;
54845;SDS011;53889;50.084;8.646;2023-04-25T01:51:48;10.20;;;6.25;;
54845;SDS011;53889;50.084;8.646;2023-04-25T01:54:14;9.20;;;6.10;;
54845;SDS011;53889;50.084;8.646;2023-04-25T01:56:43;10.38;;;7.35;;
54845;SDS011;53889;50.084;8.646;2023-04-25T01:59:10;9.07;;;6.47;;
54845;SDS011;53889;50.084;8.646;2023-04-25T02:01:50;9.70;;;6.35;;
54845;SDS011;53889;50.084;8.646;2023-04-25T02:04:24;9.57;;;6.20;;
54845;SDS011;53889;50.084;8.646;2023-04-25T02:06:51;10.68;;;6.07;;
54845;SDS011;53889;50.084;8.646;2023-04-25T02:09:18;9.13;;;6.22;;
54845;SDS011;53889;50.084;8.646;2023-04-25T02:11:51;9.40;;;6.65;;
54845;SDS011;53889;50.084;8.646;2023-04-25T02:14:48;10.02;;;7.35;;
54845;SDS011;53889;50.084;8.646;2023-04-25T02:17:23;11.98;;;7.32;;
54845;SDS011;53889;50.084;8.646;2023-04-25T02:19:50;9.45;;;7.05;;
54845;SDS011;53889;50.084;8.646;2023-04-25T02:22:16;14.07;;;8.60;;
54845;SDS011;53889;50.084;8.646;2023-04-25T02:24:45;12.75;;;8.65;;
54845;SDS011;53889;50.084;8.646;2023-04-25T02:27:13;11.43;;;7.78;;
54845;SDS011;53889;50.084;8.646;2023-04-25T02:29:40;13.98;;;9.10;;
54845;SDS011;53889;50.084;8.646;2023-04-25T02:32:09;13.68;;;9.23;;
54845;SDS011;53889;50.084;8.646;2023-04-25T02:34:36;14.00;;;9.70;;
54845;SDS011;53889;50.084;8.646;2023-04-25T02:37:02;13.50;;;8.80;;
54845;SDS011;53889;50.084;8.646;2023-04-25T02:39:29;12.30;;;8.07;;
54845;SDS011;53889;50.084;8.646;2023-04-25T02:41:56;12.95;;;8.63;;
54845;SDS011;53889;50.084;8.646;2023-04-25T02:44:24;12.23;;;8.02;;
54845;SDS011;53889;50.084;8.646;2023-04-25T02:46:50;13.10;;;9.40;;
54845;SDS011;53889;50.084;8.646;2023-04-25T02:49:17;11.70;;;8.82;;
54845;SDS011;53889;50.084;8.646;2023-04-25T02:51:44;13.27;;;8.57;;
54845;SDS011;53889;50.084;8.646;2023-04-25T02:54:11;11.57;;;7.82;;
54845;SDS011;53889;50.084;8.646;2023-04-25T02:56:41;12.73;;;8.10;;
54845;SDS011;53889;50.084;8.646;2023-04-25T02:59:13;13.07;;;8.68;;
54845;SDS011;53889;50.084;8.646;2023-04-25T03:01:41;15.18;;;8.60;;
54845;SDS011;53889;50.084;8.646;2023-04-25T03:04:07;11.55;;;8.43;;
54845;SDS011;53889;50.084;8.646;2023-04-25T03:06:34;14.90;;;9.13;;
54845;SDS011;53889;50.084;8.646;2023-04-25T03:09:01;16.90;;;10.07;;
54845;SDS011;53889;50.084;8.646;2023-04-25T03:11:29;12.98;;;8.82;;
54845;SDS011;53889;50.084;8.646;2023-04-25T03:13:55;12.02;;;8.27;;
54845;SDS011;53889;50.084;8.646;2023-04-25T03:16:22;14.57;;;9.07;;
54845;SDS011;53889;50.084;8.646;2023-04-25T03:18:50;12.50;;;9.20;;
54845;SDS011;53889;50.084;8.646;2023-04-25T03:21:17;14.73;;;8.38;;
54845;SDS011;53889;50.084;8.646;2023-04-25T03:23:44;16.73;;;8.60;;
54845;SDS011;53889;50.084;8.646;2023-04-25T03:26:11;13.30;;;8.45;;
54845;SDS011;53889;50.084;8.646;2023-04-25T03:28:37;15.20;;;8.00;;
54845;SDS011;53889;50.084;8.646;2023-04-25T03:31:05;12.13;;;7.75;;
54845;SDS011;53889;50.084;8.646;2023-04-25T03:33:32;14.02;;;8.00;;
54845;SDS011;53889;50.084;8.646;2023-04-25T03:36:00;11.73;;;7.38;;
54845;SDS011;53889;50.084;8.646;2023-04-25T03:38:28;10.63;;;7.22;;
54845;SDS011;53889;50.084;8.646;2023-04-25T03:40:55;10.45;;;6.80;;
54845;SDS011;53889;50.084;8.646;2023-04-25T03:43:35;11.90;;;7.43;;
54845;SDS011;53889;50.084;8.646;2023-04-25T03:46:06;12.30;;;7.03;;
54845;SDS011;53889;50.084;8.646;2023-04-25T03:48:32;13.38;;;7.25;;
54845;SDS011;53889;50.084;8.646;2023-04-25T03:51:00;14.68;;;7.13;;
54845;SDS011;53889;50.084;8.646;2023-04-25T03:53:29;12.23;;;6.40;;
54845;SDS011;53889;50.084;8.646;2023-04-25T03:56:14;14.37;;;6.93;;
54845;SDS011;53889;50.084;8.646;2023-04-25T03:58:42;14.43;;;7.75;;
54845;SDS011;53889;50.084;8.646;2023-04-25T04:01:09;13.38;;;6.50;;
54845;SDS011;53889;50.084;8.646;2023-04-25T04:03:37;11.45;;;6.90;;
54845;SDS011;53889;50.084;8.646;2023-04-25T04:06:06;11.13;;;6.28;;
54845;SDS011;53889;50.084;8.646;2023-04-25T04:08:37;12.63;;;6.35;;
54845;SDS011;53889;50.084;8.646;2023-04-25T04:11:04;12.43;;;6.38;;
54845;SDS011;53889;50.084;8.646;2023-04-25T04:13:31;14.00;;;7.10;;
54845;SDS011;53889;50.084;8.646;2023-04-25T04:15:58;13.73;;;7.10;;
54845;SDS011;53889;50.084;8.646;2023-04-25T04:18:25;12.90;;;6.90;;
54845;SDS011;53889;50.084;8.646;2023-04-25T04:20:54;15.68;;;7.78;;
54845;SDS011;53889;50.084;8.646;2023-04-25T04:23:22;12.55;;;6.70;;
54845;SDS011;53889;50.084;8.646;2023-04-25T04:25:50;13.23;;;6.93;;
54845;SDS011;53889;50.084;8.646;2023-04-25T04:28:27;15.98;;;7.80;;
54845;SDS011;53889;50.084;8.646;2023-04-25T04:30:58;11.63;;;7.07;;
54845;SDS011;53889;50.084;8.646;2023-04-25T04:33:26;14.82;;;7.28;;
54845;SDS011;53889;50.084;8.646;2023-04-25T04:35:57;15.88;;;7.50;;
54845;SDS011;53889;50.084;8.646;2023-04-25T04:38:25;12.55;;;7.35;;
54845;SDS011;53889;50.084;8.646;2023-04-25T04:40:55;14.88;;;7.65;;
54845;SDS011;53889;50.084;8.646;2023-04-25T04:43:34;13.85;;;7.60;;
54845;SDS011;53889;50.084;8.646;2023-04-25T04:46:21;14.45;;;8.07;;
54845;SDS011;53889;50.084;8.646;2023-04-25T04:49:11;15.27;;;8.00;;
54845;SDS011;53889;50.084;8.646;2023-04-25T04:52:04;16.23;;;8.48;;
54845;SDS011;53889;50.084;8.646;2023-04-25T04:54:55;16.05;;;7.93;;
54845;SDS011;53889;50.084;8.646;2023-04-25T04:57:41;15.48;;;8.15;;
54845;SDS011;53889;50.084;8.646;2023-04-25T05:00:19;14.15;;;7.82;;
54845;SDS011;53889;50.084;8.646;2023-04-25T05:03:06;12.95;;;7.38;;
54845;SDS011;53889;50.084;8.646;2023-04-25T05:06:11;14.50;;;7.22;;
54845;SDS011;53889;50.084;8.646;2023-04-25T05:08:56;14.10;;;6.47;;
54845;SDS011;53889;50.084;8.646;2023-04-25T05:11:35;16.10;;;7.10;;
54845;SDS011;53889;50.084;8.646;2023-04-25T05:14:25;13.80;;;5.97;;
54845;SDS011;53889;50.084;8.646;2023-04-25T05:17:10;15.73;;;6.47;;
54845;SDS011;53889;50.084;8.646;2023-04-25T05:20:12;13.50;;;6.38;;
54845;SDS011;53889;50.084;8.646;2023-04-25T05:23:02;14.95;;;7.18;;
54845;SDS011;53889;50.084;8.646;2023-04-25T05:25:51;13.43;;;6.70;;
54845;SDS011;53889;50.084;8.646;2023-04-25T05:28:37;13.52;;;6.68;;
54845;SDS011;53889;50.084;8.646;2023-04-25T05:31:23;10.27;;;5.93;;
54845;SDS011;53889;50.084;8.646;2023-04-25T05:33:55;13.45;;;6.25;;
54845;SDS011;53889;50.084;8.646;2023-04-25T05:36:26;14.07;;;6.10;;
54845;SDS011;53889;50.084;8.646;2023-04-25T05:38:53;11.95;;;6.15;;
54845;SDS011;53889;50.084;8.646;2023-04-25T05:41:20;12.68;;;5.53;;
54845;SDS011;53889;50.084;8.646;2023-04-25T05:44:08;12.13;;;5.75;;
54845;SDS011;53889;50.084;8.646;2023-04-25T05:46:43;10.88;;;5.63;;
54845;SDS011;53889;50.084;8.646;2023-04-25T05:49:22;11.20;;;5.97;;
54845;SDS011;53889;50.084;8.646;2023-04-25T05:51:52;14.27;;;7.50;;
54845;SDS011;53889;50.084;8.646;2023-04-25T05:54:39;16.55;;;7.30;;
54845;SDS011;53889;50.084;8.646;2023-04-25T05:57:06;16.05;;;6.07;;
54845;SDS011;53889;50.084;8.646;2023-04-25T05:59:34;10.60;;;5.78;;
54845;SDS011;53889;50.084;8.646;2023-04-25T06:02:01;12.75;;;6.38;;
54845;SDS011;53889;50.084;8.646;2023-04-25T06:04:30;14.55;;;5.80;;
54845;SDS011;53889;50.084;8.646;2023-04-25T06:06:57;13.35;;;6.18;;
54845;SDS011;53889;50.084;8.646;2023-04-25T06:09:25;12.63;;;6.00;;
54845;SDS011;53889;50.084;8.646;2023-04-25T06:11:53;14.40;;;5.63;;
54845;SDS011;53889;50.084;8.646;2023-04-25T06:14:20;11.57;;;4.70;;
54845;SDS011;53889;50.084;8.646;2023-04-25T06:16:50;10.85;;;6.13;;
54845;SDS011;53889;50.084;8.646;2023-04-25T06:19:16;11.15;;;5.80;;
54845;SDS011;53889;50.084;8.646;2023-04-25T06:21:43;11.88;;;5.38;;
54845;SDS011;53889;50.084;8.646;2023-04-25T06:24:11;11.18;;;4.68;;
54845;SDS011;53889;50.084;8.646;2023-04-25T06:26:38;9.25;;;4.25;;
54845;SDS011;53889;50.084;8.646;2023-04-25T06:29:05;9.00;;;4.63;;
54845;SDS011;53889;50.084;8.646;2023-04-25T06:31:32;11.63;;;5.35;;
54845;SDS011;53889;50.084;8.646;2023-04-25T06:34:00;8.85;;;4.72;;
54845;SDS011;53889;50.084;8.646;2023-04-25T06:36:30;10.15;;;5.18;;
54845;SDS011;53889;50.084;8.646;2023-04-25T06:39:03;9.20;;;4.07;;
54845;SDS011;53889;50.084;8.646;2023-04-25T06:41:31;8.25;;;4.20;;
54845;SDS011;53889;50.084;8.646;2023-04-25T06:44:01;8.25;;;4.40;;
54845;SDS011;53889;50.084;8.646;2023-04-25T06:46:49;10.05;;;4.07;;
54845;SDS011;53889;50.084;8.646;2023-04-25T06:49:20;8.88;;;4.65;;
54845;SDS011;53889;50.084;8.646;2023-04-25T06:51:52;11.43;;;4.68;;
54845;SDS011;53889;50.084;8.646;2023-04-25T06:54:23;8.93;;;4.88;;
54845;SDS011;53889;50.084;8.646;2023-04-25T06:56:59;9.18;;;4.05;;
54845;SDS011;53889;50.084;8.646;2023-04-25T06:59:27;7.95;;;3.85;;
54845;SDS011;53889;50.084;8.646;2023-04-25T07:01:53;12.30;;;4.50;;
54845;SDS011;53889;50.084;8.646;2023-04-25T07:04:25;8.48;;;3.97;;
54845;SDS011;53889;50.084;8.646;2023-04-25T07:06:56;10.25;;;4.80;;
54845;SDS011;53889;50.084;8.646;2023-04-25T07:09:33;8.82;;;4.22;;
54845;SDS011;53889;50.084;8.646;2023-04-25T07:12:00;7.18;;;3.65;;
54845;SDS011;53889;50.084;8.646;2023-04-25T07:14:27;8.93;;;4.30;;
54845;SDS011;53889;50.084;8.646;2023-04-25T07:16:54;9.85;;;4.13;;
54845;SDS011;53889;50.084;8.646;2023-04-25T07:19:23;7.63;;;4.18;;
54845;SDS011;53889;50.084;8.646;2023-04-25T07:21:53;10.13;;;4.72;;
54845;SDS011;53889;50.084;8.646;2023-04-25T07:24:20;9.05;;;4.10;;
54845;SDS011;53889;50.084;8.646;2023-04-25T07:26:48;9.05;;;4.40;;
54845;SDS011;53889;50.084;8.646;2023-04-25T07:29:26;9.07;;;4.65;;
54845;SDS011;53889;50.084;8.646;2023-04-25T07:31:53;9.30;;;4.60;;
54845;SDS011;53889;50.084;8.646;2023-04-25T07:34:21;8.07;;;3.60;;
54845;SDS011;53889;50.084;8.646;2023-04-25T07:36:47;8.40;;;3.50;;
54845;SDS011;53889;50.084;8.646;2023-04-25T07:39:16;8.80;;;3.58;;
54845;SDS011;53889;50.084;8.646;2023-04-25T07:41:43;7.72;;;3.20;;
54845;SDS011;53889;50.084;8.646;2023-04-25T07:44:16;7.93;;;3.22;;
54845;SDS011;53889;50.084;8.646;2023-04-25T07:46:43;7.07;;;3.38;;
54845;SDS011;53889;50.084;8.646;2023-04-25T07:49:09;5.63;;;2.90;;
54845;SDS011;53889;50.084;8.646;2023-04-25T07:51:37;6.43;;;2.80;;
54845;SDS011;53889;50.084;8.646;2023-04-25T07:54:08;6.72;;;2.80;;
54845;SDS011;53889;50.084;8.646;2023-04-25T07:56:43;5.55;;;3.08;;
54845;SDS011;53889;50.084;8.646;2023-04-25T07:59:09;7.50;;;2.58;;
54845;SDS011;53889;50.084;8.646;2023-04-25T08:01:37;7.15;;;2.72;;
54845;SDS011;53889;50.084;8.646;2023-04-25T08:04:06;5.93;;;2.60;;
54845;SDS011;53889;50.084;8.646;2023-04-25T08:06:49;7.43;;;3.00;;
54845;SDS011;53889;50.084;8.646;2023-04-25T08:09:20;6.18;;;2.55;;
54845;SDS011;53889;50.084;8.646;2023-04-25T08:11:49;11.25;;;2.88;;
54845;SDS011;53889;50.084;8.646;2023-04-25T08:14:20;6.53;;;2.60;;
54845;SDS011;53889;50.084;8.646;2023-04-25T08:16:47;6.05;;;2.78;;
54845;SDS011;53889;50.084;8.646;2023-04-25T08:19:15;6.03;;;3.95;;
54845;SDS011;53889;50.084;8.646;2023-04-25T08:21:42;17.00;;;9.25;;
54845;SDS011;53889;50.084;8.646;2023-04-25T08:24:13;30.27;;;22.58;;
54845;SDS011;53889;50.084;8.646;2023-04-25T08:26:40;14.73;;;12.23;;
54845;SDS011;53889;50.084;8.646;2023-04-25T08:29:10;11.85;;;8.70;;
54845;SDS011;53889;50.084;8.646;2023-04-25T08:31:39;6.32;;;4.03;;
54845;SDS011;53889;50.084;8.646;2023-04-25T08:34:07;6.72;;;2.70;;
54845;SDS011;53889;50.084;8.646;2023-04-25T08:36:42;8.13;;;3.15;;
54845;SDS011;53889;50.084;8.646;2023-04-25T08:39:22;6.75;;;2.83;;
54845;SDS011;53889;50.084;8.646;2023-04-25T08:42:21;5.22;;;2.58;;
54845;SDS011;53889;50.084;8.646;2023-04-25T08:44:50;7.55;;;2.80;;
54845;SDS011;53889;50.084;8.646;2023-04-25T08:47:21;5.07;;;2.90;;
54845;SDS011;53889;50.084;8.646;2023-04-25T08:49:53;4.93;;;2.80;;
54845;SDS011;53889;50.084;8.646;2023-04-25T08:52:21;6.97;;;3.30;;
54845;SDS011;53889;50.084;8.646;2023-04-25T08:54:50;4.82;;;2.42;;
54845;SDS011;53889;50.084;8.646;2023-04-25T08:57:19;5.55;;;2.40;;
54845;SDS011;53889;50.084;8.646;2023-04-25T08:59:47;5.22;;;2.60;;
54845;SDS011;53889;50.084;8.646;2023-04-25T09:02:16;4.13;;;2.25;;
54845;SDS011;53889;50.084;8.646;2023-04-25T09:04:47;5.43;;;2.28;;
54845;SDS011;53889;50.084;8.646;2023-04-25T09:07:15;4.63;;;2.40;;
54845;SDS011;53889;50.084;8.646;2023-04-25T09:09:46;5.97;;;2.38;;
54845;SDS011;53889;50.084;8.646;2023-04-25T09:12:16;4.30;;;2.35;;
54845;SDS011;53889;50.084;8.646;2023-04-25T09:14:46;8.15;;;3.08;;
54845;SDS011;53889;50.084;8.646;2023-04-25T09:17:43;5.80;;;2.83;;
54845;SDS011;53889;50.084;8.646;2023-04-25T09:20:11;5.65;;;2.85;;
54845;SDS011;53889;50.084;8.646;2023-04-25T09:22:40;8.13;;;3.10;;
54845;SDS011;53889;50.084;8.646;2023-04-25T09:25:08;6.00;;;3.17;;
54845;SDS011;53889;50.084;8.646;2023-04-25T09:27:37;6.05;;;2.92;;
54845;SDS011;53889;50.084;8.646;2023-04-25T09:30:28;7.10;;;3.80;;
54845;SDS011;53889;50.084;8.646;2023-04-25T09:33:08;3.75;;;2.70;;
54845;SDS011;53889;50.084;8.646;2023-04-25T09:35:40;5.82;;;3.15;;
54845;SDS011;53889;50.084;8.646;2023-04-25T09:38:13;7.05;;;3.42;;
54845;SDS011;53889;50.084;8.646;2023-04-25T09:40:56;6.93;;;3.90;;
54845;SDS011;53889;50.084;8.646;2023-04-25T09:43:42;8.23;;;3.38;;
54845;SDS011;53889;50.084;8.646;2023-04-25T09:46:11;6.70;;;3.60;;
54845;SDS011;53889;50.084;8.646;2023-04-25T09:48:49;6.75;;;3.67;;
54845;SDS011;53889;50.084;8.646;2023-04-25T09:51:20;7.93;;;3.70;;
54845;SDS011;53889;50.084;8.646;2023-04-25T09:53:53;7.93;;;3.40;;
54845;SDS011;53889;50.084;8.646;2023-04-25T09:56:25;4.88;;;2.95;;
54845;SDS011;53889;50.084;8.646;2023-04-25T09:58:55;5.82;;;3.38;;
54845;SDS011;53889;50.084;8.646;2023-04-25T10:01:22;5.43;;;2.80;;
54845;SDS011;53889;50.084;8.646;2023-04-25T10:04:03;6.07;;;3.15;;
54845;SDS011;53889;50.084;8.646;2023-04-25T10:06:42;6.82;;;3.10;;
54845;SDS011;53889;50.084;8.646;2023-04-25T10:09:10;6.63;;;3.38;;
54845;SDS011;53889;50.084;8.646;2023-04-25T10:11:38;7.72;;;3.08;;
54845;SDS011;53889;50.084;8.646;2023-04-25T10:14:05;8.10;;;3.83;;
54845;SDS011;53889;50.084;8.646;2023-04-25T10:16:32;6.93;;;3.75;;
54845;SDS011;53889;50.084;8.646;2023-04-25T10:18:59;8.15;;;3.60;;
54845;SDS011;53889;50.084;8.646;2023-04-25T10:21:28;5.78;;;3.50;;
54845;SDS011;53889;50.084;8.646;2023-04-25T10:23:58;5.35;;;3.00;;
54845;SDS011;53889;50.084;8.646;2023-04-25T10:26:25;6.55;;;3.00;;
54845;SDS011;53889;50.084;8.646;2023-04-25T10:28:55;5.93;;;3.17;;
54845;SDS011;53889;50.084;8.646;2023-04-25T10:31:22;6.07;;;2.95;;
54845;SDS011;53889;50.084;8.646;2023-04-25T10:33:49;5.93;;;3.00;;
54845;SDS011;53889;50.084;8.646;2023-04-25T10:36:17;5.68;;;2.92;;
54845;SDS011;53889;50.084;8.646;2023-04-25T10:38:45;5.85;;;3.05;;
54845;SDS011;53889;50.084;8.646;2023-04-25T10:41:15;5.35;;;2.78;;
54845;SDS011;53889;50.084;8.646;2023-04-25T10:43:44;8.23;;;3.40;;
54845;SDS011;53889;50.084;8.646;2023-04-25T10:46:15;7.45;;;3.50;;
54845;SDS011;53889;50.084;8.646;2023-04-25T10:48:45;6.55;;;3.10;;
54845;SDS011;53889;50.084;8.646;2023-04-25T10:51:16;7.32;;;3.38;;
54845;SDS011;53889;50.084;8.646;2023-04-25T10:53:45;6.82;;;3.60;;
54845;SDS011;53889;50.084;8.646;2023-04-25T10:56:16;7.90;;;3.72;;
54845;SDS011;53889;50.084;8.646;2023-04-25T10:58:44;8.02;;;3.83;;
54845;SDS011;53889;50.084;8.646;2023-04-25T11:01:11;6.32;;;3.63;;
54845;SDS011;53889;50.084;8.646;2023-04-25T11:03:40;7.85;;;3.50;;
54845;SDS011;53889;50.084;8.646;2023-04-25T11:06:10;6.47;;;3.58;;
54845;SDS011;53889;50.084;8.646;2023-04-25T11:08:48;11.93;;;5.55;;
54845;SDS011;53889;50.084;8.646;2023-04-25T11:11:16;8.85;;;4.18;;
54845;SDS011;53889;50.084;8.646;2023-04-25T11:13:43;6.78;;;3.80;;
54845;SDS011;53889;50.084;8.646;2023-04-25T11:16:09;6.22;;;3.08;;
54845;SDS011;53889;50.084;8.646;2023-04-25T11:18:36;6.03;;;2.90;;
54845;SDS011;53889;50.084;8.646;2023-04-25T11:21:03;6.28;;;3.50;;
54845;SDS011;53889;50.084;8.646;2023-04-25T11:23:31;4.53;;;2.90;;
54845;SDS011;53889;50.084;8.646;2023-04-25T11:25:59;10.68;;;3.40;;
54845;SDS011;53889;50.084;8.646;2023-04-25T11:28:26;6.35;;;3.30;;
54845;SDS011;53889;50.084;8.646;2023-04-25T11:30:53;8.35;;;3.28;;
54845;SDS011;53889;50.084;8.646;2023-04-25T11:33:22;6.65;;;2.90;;
54845;SDS011;53889;50.084;8.646;2023-04-25T11:35:50;11.35;;;3.50;;
54845;SDS011;53889;50.084;8.646;2023-04-25T11:38:18;6.72;;;2.70;;
54845;SDS011;53889;50.084;8.646;2023-04-25T11:40:49;6.00;;;3.05;;
54845;SDS011;53889;50.084;8.646;2023-04-25T11:43:17;6.45;;;3.03;;
54845;SDS011;53889;50.084;8.646;2023-04-25T11:45:46;6.97;;;3.22;;
54845;SDS011;53889;50.084;8.646;2023-04-25T11:48:13;5.90;;;2.60;;
54845;SDS011;53889;50.084;8.646;2023-04-25T11:50:40;6.55;;;3.50;;
54845;SDS011;53889;50.084;8.646;2023-04-25T11:53:07;9.20;;;3.10;;
54845;SDS011;53889;50.084;8.646;2023-04-25T11:55:35;6.45;;;3.10;;
54845;SDS011;53889;50.084;8.646;2023-04-25T11:58:02;7.30;;;2.97;;
54845;SDS011;53889;50.084;8.646;2023-04-25T12:00:31;7.50;;;2.88;;
54845;SDS011;53889;50.084;8.646;2023-04-25T12:02:58;5.20;;;2.67;;
54845;SDS011;53889;50.084;8.646;2023-04-25T12:05:26;7.97;;;3.50;;
54845;SDS011;53889;50.084;8.646;2023-04-25T12:07:53;7.75;;;3.53;;
54845;SDS011;53889;50.084;8.646;2023-04-25T12:10:20;7.60;;;3.60;;
54845;SDS011;53889;50.084;8.646;2023-04-25T12:12:47;7.65;;;4.13;;
54845;SDS011;53889;50.084;8.646;2023-04-25T12:15:15;6.57;;;3.00;;
54845;SDS011;53889;50.084;8.646;2023-04-25T12:17:46;4.72;;;2.70;;
54845;SDS011;53889;50.084;8.646;2023-04-25T12:20:13;6.43;;;3.10;;
54845;SDS011;53889;50.084;8.646;2023-04-25T12:22:41;6.05;;;2.83;;
54845;SDS011;53889;50.084;8.646;2023-04-25T12:25:10;5.78;;;2.88;;
54845;SDS011;53889;50.084;8.646;2023-04-25T12:27:38;7.88;;;2.65;;
54845;SDS011;53889;50.084;8.646;2023-04-25T12:30:07;8.15;;;3.28;;
54845;SDS011;53889;50.084;8.646;2023-04-25T12:32:35;6.85;;;3.00;;
54845;SDS011;53889;50.084;8.646;2023-04-25T12:35:04;5.68;;;3.28;;
54845;SDS011;53889;50.084;8.646;2023-04-25T12:37:31;8.82;;;3.00;;
54845;SDS011;53889;50.084;8.646;2023-04-25T12:39:58;7.13;;;3.00;;
54845;SDS011;53889;50.084;8.646;2023-04-25T12:42:25;6.25;;;2.70;;
54845;SDS011;53889;50.084;8.646;2023-04-25T12:44:51;10.95;;;4.80;;
54845;SDS011;53889;50.084;8.646;2023-04-25T12:47:18;7.32;;;2.72;;
54845;SDS011;53889;50.084;8.646;2023-04-25T12:49:45;9.75;;;2.97;;
54845;SDS011;53889;50.084;8.646;2023-04-25T12:52:13;6.97;;;2.85;;
54845;SDS011;53889;50.084;8.646;2023-04-25T12:54:40;5.60;;;2.40;;
54845;SDS011;53889;50.084;8.646;2023-04-25T12:57:07;11.45;;;5.13;;
54845;SDS011;53889;50.084;8.646;2023-04-25T12:59:33;8.88;;;2.88;;
54845;SDS011;53889;50.084;8.646;2023-04-25T13:02:00;6.45;;;2.78;;
54845;SDS011;53889;50.084;8.646;2023-04-25T13:04:28;8.90;;;3.40;;
54845;SDS011;53889;50.084;8.646;2023-04-25T13:06:54;7.47;;;2.72;;
54845;SDS011;53889;50.084;8.646;2023-04-25T13:09:22;6.93;;;2.25;;
54845;SDS011;53889;50.084;8.646;2023-04-25T13:11:49;6.65;;;2.50;;
54845;SDS011;53889;50.084;8.646;2023-04-25T13:14:16;6.65;;;3.03;;
54845;SDS011;53889;50.084;8.646;2023-04-25T13:16:43;7.53;;;2.75;;
54845;SDS011;53889;50.084;8.646;2023-04-25T13:19:10;5.50;;;2.38;;
54845;SDS011;53889;50.084;8.646;2023-04-25T13:21:37;6.60;;;2.85;;
54845;SDS011;53889;50.084;8.646;2023-04-25T13:24:05;7.35;;;2.95;;
54845;SDS011;53889;50.084;8.646;2023-04-25T13:26:34;8.98;;;3.25;;
54845;SDS011;53889;50.084;8.646;2023-04-25T13:29:00;6.78;;;3.03;;
54845;SDS011;53889;50.084;8.646;2023-04-25T13:31:28;7.43;;;3.10;;
54845;SDS011;53889;50.084;8.646;2023-04-25T13:33:55;7.90;;;3.17;;
54845;SDS011;53889;50.084;8.646;2023-04-25T13:36:22;8.52;;;3.97;;
54845;SDS011;53889;50.084;8.646;2023-04-25T13:38:49;8.05;;;3.40;;
54845;SDS011;53889;50.084;8.646;2023-04-25T13:41:15;8.15;;;3.15;;
54845;SDS011;53889;50.084;8.646;2023-04-25T13:43:45;8.63;;;3.47;;
54845;SDS011;53889;50.084;8.646;2023-04-25T13:46:13;10.50;;;6.07;;
54845;SDS011;53889;50.084;8.646;2023-04-25T13:48:40;6.60;;;3.40;;
54845;SDS011;53889;50.084;8.646;2023-04-25T13:51:12;9.50;;;3.72;;
54845;SDS011;53889;50.084;8.646;2023-04-25T13:53:40;8.07;;;3.47;;
54845;SDS011;53889;50.084;8.646;2023-04-25T13:56:07;8.35;;;3.00;;
54845;SDS011;53889;50.084;8.646;2023-04-25T13:58:33;12.32;;;3.35;;
54845;SDS011;53889;50.084;8.646;2023-04-25T14:01:02;8.88;;;3.33;;
54845;SDS011;53889;50.084;8.646;2023-04-25T14:03:29;9.15;;;3.85;;
54845;SDS011;53889;50.084;8.646;2023-04-25T14:05:56;8.35;;;3.88;;
54845;SDS011;53889;50.084;8.646;2023-04-25T14:08:23;9.30;;;3.60;;
54845;SDS011;53889;50.084;8.646;2023-04-25T14:10:50;8.07;;;3.05;;
54845;SDS011;53889;50.084;8.646;2023-04-25T14:13:17;7.72;;;2.65;;
54845;SDS011;53889;50.084;8.646;2023-04-25T14:15:44;10.23;;;3.80;;
54845;SDS011;53889;50.084;8.646;2023-04-25T14:18:12;7.22;;;3.13;;
54845;SDS011;53889;50.084;8.646;2023-04-25T14:20:39;7.55;;;2.38;;
54845;SDS011;53889;50.084;8.646;2023-04-25T14:23:06;9.20;;;2.38;;
54845;SDS011;53889;50.084;8.646;2023-04-25T14:25:32;5.68;;;2.30;;
54845;SDS011;53889;50.084;8.646;2023-04-25T14:28:00;6.28;;;2.05;;
54845;SDS011;53889;50.084;8.646;2023-04-25T14:30:27;6.63;;;2.60;;
54845;SDS011;53889;50.084;8.646;2023-04-25T14:32:54;4.75;;;2.15;;
54845;SDS011;53889;50.084;8.646;2023-04-25T14:35:22;7.78;;;2.80;;
54845;SDS011;53889;50.084;8.646;2023-04-25T14:37:49;6.50;;;2.80;;
54845;SDS011;53889;50.084;8.646;2023-04-25T14:40:15;5.78;;;2.50;;
54845;SDS011;53889;50.084;8.646;2023-04-25T14:42:42;10.82;;;3.70;;
54845;SDS011;53889;50.084;8.646;2023-04-25T14:45:09;6.88;;;2.30;;
54845;SDS011;53889;50.084;8.646;2023-04-25T14:47:37;6.68;;;2.30;;
54845;SDS011;53889;50.084;8.646;2023-04-25T14:50:04;5.05;;;2.00;;
54845;SDS011;53889;50.084;8.646;2023-04-25T14:52:33;4.55;;;2.00;;
54845;SDS011;53889;50.084;8.646;2023-04-25T14:55:00;5.97;;;2.38;;
54845;SDS011;53889;50.084;8.646;2023-04-25T14:57:29;5.85;;;2.10;;
54845;SDS011;53889;50.084;8.646;2023-04-25T14:59:56;8.10;;;2.30;;